createdAt,value
2018-04-14T00:01:10.790Z,95451.64
2018-04-14T00:03:37.220Z,95453.59
2018-04-14T00:06:03.652Z,95445.60
2018-04-14T00:08:30.162Z,95455.03
2018-04-14T00:10:56.658Z,95460.48
2018-04-14T00:13:23.132Z,95451.30
2018-04-14T00:15:49.685Z,95457.52
2018-04-14T00:18:16.210Z,95462.34
2018-04-14T00:20:42.765Z,95465.82
2018-04-14T00:23:09.288Z,95467.33
2018-04-14T00:25:35.799Z,95470.14
2018-04-14T00:28:02.476Z,95472.30
2018-04-14T00:30:28.888Z,95470.95
2018-04-14T00:32:55.400Z,95480.38
2018-04-14T00:35:21.888Z,95482.20
2018-04-14T00:37:48.377Z,95475.94
2018-04-14T00:40:14.792Z,95482.64
2018-04-14T00:42:41.249Z,95479.64
2018-04-14T00:45:07.793Z,95484.16
2018-04-14T00:47:34.223Z,95487.53
2018-04-14T00:50:00.620Z,95479.63
2018-04-14T00:52:27.083Z,95476.67
2018-04-14T00:54:53.608Z,95481.92
2018-04-14T00:57:20.109Z,95481.92
2018-04-14T00:59:46.602Z,95482.85
2018-04-14T01:02:13.052Z,95487.30
2018-04-14T01:04:39.519Z,95480.81
2018-04-14T01:07:05.964Z,95483.33
2018-04-14T01:09:32.506Z,95485.76
2018-04-14T01:11:58.980Z,95487.41
2018-04-14T01:14:25.384Z,95482.67
2018-04-14T01:16:51.887Z,95477.30
2018-04-14T01:19:18.477Z,95481.94
2018-04-14T01:21:45.090Z,95487.99
2018-04-14T01:24:11.563Z,95487.89
2018-04-14T01:26:37.977Z,95490.66
2018-04-14T01:29:04.476Z,95495.48
2018-04-14T01:31:30.988Z,95496.31
2018-04-14T01:33:57.432Z,95497.61
2018-04-14T01:36:23.892Z,95498.63
2018-04-14T01:38:50.364Z,95505.81
2018-04-14T01:41:16.833Z,95516.42
2018-04-14T01:43:43.258Z,95514.17
2018-04-14T01:46:09.711Z,95510.73
2018-04-14T01:48:36.261Z,95516.39
2018-04-14T01:51:02.812Z,95511.50
2018-04-14T01:53:29.264Z,95507.52
2018-04-14T01:55:55.720Z,95512.31
2018-04-14T01:58:22.149Z,95508.05
2018-04-14T02:00:48.566Z,95512.00
2018-04-14T02:03:15.126Z,95517.44
2018-04-14T02:05:41.616Z,95515.95
2018-04-14T02:08:08.188Z,95519.08
2018-04-14T02:10:34.620Z,95522.71
2018-04-14T02:13:01.080Z,95526.39
2018-04-14T02:15:27.624Z,95526.80
2018-04-14T02:17:54.084Z,95528.52
2018-04-14T02:20:20.598Z,95528.52
2018-04-14T02:22:47.072Z,95527.94
2018-04-14T02:25:13.561Z,95530.09
2018-04-14T02:27:40.120Z,95535.17
2018-04-14T02:30:06.508Z,95534.86
2018-04-14T02:32:32.956Z,95527.56
2018-04-14T02:34:59.366Z,95532.00
2018-04-14T02:37:25.824Z,95531.50
2018-04-14T02:39:52.181Z,95530.10
2018-04-14T02:42:18.622Z,95527.56
2018-04-14T02:44:45.127Z,95531.04
2018-04-14T02:47:11.569Z,95538.52
2018-04-14T02:49:38.023Z,95537.78
2018-04-14T02:52:04.451Z,95534.16
2018-04-14T02:54:31.093Z,95537.64
2018-04-14T02:56:57.522Z,95538.62
2018-04-14T02:59:23.966Z,95533.55
2018-04-14T03:01:50.397Z,95536.09
2018-04-14T03:04:16.878Z,95537.23
2018-04-14T03:06:43.352Z,95534.86
2018-04-14T03:09:09.838Z,95537.14
2018-04-14T03:11:36.304Z,95536.32
2018-04-14T03:14:02.805Z,95542.97
2018-04-14T03:16:29.268Z,95546.27
2018-04-14T03:18:55.731Z,95543.95
2018-04-14T03:21:22.209Z,95549.38
2018-04-14T03:23:48.705Z,95541.56
2018-04-14T03:26:15.202Z,95543.45
2018-04-14T03:28:41.757Z,95546.92
2018-04-14T03:31:08.194Z,95547.89
2018-04-14T03:33:34.663Z,95548.81
2018-04-14T03:36:01.200Z,95546.66
2018-04-14T03:38:27.574Z,95549.21
2018-04-14T03:40:53.959Z,95550.52
2018-04-14T03:43:20.447Z,95554.78
2018-04-14T03:45:46.892Z,95555.03
2018-04-14T03:48:13.296Z,95554.78
2018-04-14T03:50:39.825Z,95554.22
2018-04-14T03:53:06.361Z,95559.30
2018-04-14T03:55:32.806Z,95562.82
2018-04-14T03:57:59.233Z,95563.08
2018-04-14T04:00:25.732Z,95568.01
2018-04-14T04:02:52.179Z,95567.58
2018-04-14T04:05:18.656Z,95568.58
2018-04-14T04:07:45.155Z,95578.59
2018-04-14T04:10:11.741Z,95576.29
2018-04-14T04:12:38.207Z,95577.36
2018-04-14T04:15:04.704Z,95581.11
2018-04-14T04:17:31.151Z,95590.16
2018-04-14T04:20:09.597Z,95588.59
2018-04-14T04:22:48.003Z,95592.12
2018-04-14T04:25:38.263Z,95594.98
2018-04-14T04:28:04.758Z,95591.05
2018-04-14T04:30:31.148Z,95599.02
2018-04-14T04:32:57.627Z,95600.06
2018-04-14T04:35:23.874Z,95602.17
2018-04-14T04:37:50.220Z,95602.52
2018-04-14T04:40:16.626Z,95605.03
2018-04-14T04:42:42.915Z,95611.80
2018-04-14T04:45:09.256Z,95615.57
2018-04-14T04:47:35.494Z,95622.70
2018-04-14T04:50:01.892Z,95616.22
2018-04-14T04:52:28.262Z,95617.39
2018-04-14T04:54:54.588Z,95621.88
2018-04-14T04:57:20.864Z,95625.09
2018-04-14T04:59:47.185Z,95627.95
2018-04-14T05:02:13.534Z,95629.51
2018-04-14T05:04:39.917Z,95635.48
2018-04-14T05:07:06.317Z,95629.33
2018-04-14T05:09:32.615Z,95631.59
2018-04-14T05:11:59.084Z,95632.30
2018-04-14T05:14:25.428Z,95637.72
2018-04-14T05:16:51.920Z,95638.77
2018-04-14T05:19:18.332Z,95641.17
2018-04-14T05:21:44.631Z,95635.44
2018-04-14T05:24:11.039Z,95639.60
2018-04-14T05:26:37.461Z,95643.63
2018-04-14T05:29:03.776Z,95642.13
2018-04-14T05:31:30.306Z,95643.25
2018-04-14T05:33:56.719Z,95643.95
2018-04-14T05:36:23.136Z,95639.59
2018-04-14T05:38:49.417Z,95643.92
2018-04-14T05:41:15.707Z,95641.86
2018-04-14T05:43:42.077Z,95645.98
2018-04-14T05:46:08.321Z,95652.17
2018-04-14T05:48:34.915Z,95645.42
2018-04-14T05:51:01.172Z,95650.70
2018-04-14T05:56:00.397Z,95652.65
2018-04-14T05:58:26.753Z,95662.50
2018-04-14T06:00:53.031Z,95663.48
2018-04-14T06:03:19.461Z,95662.02
2018-04-14T06:05:45.746Z,95669.59
2018-04-14T06:08:12.136Z,95668.88
2018-04-14T06:10:38.497Z,95668.51
2018-04-14T06:13:04.761Z,95667.85
2018-04-14T06:15:31.101Z,95668.84
2018-04-14T06:20:23.725Z,95667.62
2018-04-14T06:22:49.995Z,95670.81
2018-04-14T06:27:49.352Z,95666.36
2018-04-14T06:30:15.697Z,95671.10
2018-04-14T06:32:42.042Z,95670.38
2018-04-14T06:35:08.471Z,95672.23
2018-04-14T06:37:34.798Z,95672.18
2018-04-14T06:40:01.143Z,95669.00
2018-04-14T06:42:27.679Z,95671.66
2018-04-14T06:44:54.117Z,95670.88
2018-04-14T06:47:20.472Z,95676.30
2018-04-14T06:49:46.784Z,95674.58
2018-04-14T06:52:13.219Z,95681.17
2018-04-14T06:54:39.502Z,95673.97
2018-04-14T06:57:05.800Z,95679.77
2018-04-14T06:59:32.149Z,95676.92
2018-04-14T07:01:58.503Z,95673.27
2018-04-14T07:04:24.876Z,95685.88
2018-04-14T07:06:51.297Z,95685.00
2018-04-14T07:09:17.605Z,95686.19
2018-04-14T07:11:43.949Z,95688.27
2018-04-14T07:14:10.287Z,95688.66
2018-04-14T07:16:36.583Z,95685.36
2018-04-14T07:19:03.252Z,95688.22
2018-04-14T07:21:29.833Z,95693.03
2018-04-14T07:23:56.196Z,95695.94
2018-04-14T07:26:22.524Z,95697.59
2018-04-14T07:28:48.812Z,95696.56
2018-04-14T07:31:15.178Z,95696.76
2018-04-14T07:33:41.450Z,95687.91
2018-04-14T07:36:07.780Z,95696.91
2018-04-14T07:38:34.061Z,95699.44
2018-04-14T07:41:00.457Z,95692.67
2018-04-14T07:43:26.825Z,95691.21
2018-04-14T07:45:53.107Z,95695.22
2018-04-14T07:48:19.373Z,95696.17
2018-04-14T07:50:45.660Z,95693.99
2018-04-14T07:53:11.957Z,95695.87
2018-04-14T07:55:38.284Z,95693.03
2018-04-14T07:58:04.667Z,95697.03
2018-04-14T08:00:31.036Z,95692.88
2018-04-14T08:02:57.476Z,95696.38
2018-04-14T08:05:23.789Z,95698.55
2018-04-14T08:07:50.095Z,95700.34
2018-04-14T08:10:16.467Z,95702.88
2018-04-14T08:12:42.847Z,95701.33
2018-04-14T08:15:15.995Z,95696.90
2018-04-14T08:17:42.337Z,95705.94
2018-04-14T08:20:08.664Z,95701.58
2018-04-14T08:22:34.968Z,95699.67
2018-04-14T08:25:01.251Z,95685.66
2018-04-14T08:27:27.568Z,95687.72
2018-04-14T08:29:53.879Z,95689.99
2018-04-14T08:32:20.209Z,95689.09
2018-04-14T08:34:46.523Z,95685.66
2018-04-14T08:37:12.921Z,95677.78
2018-04-14T08:39:39.295Z,95686.72
2018-04-14T08:42:05.599Z,95684.34
2018-04-14T08:44:31.892Z,95677.33
2018-04-14T08:46:58.235Z,95674.01
2018-04-14T08:49:24.496Z,95674.73
2018-04-14T08:51:50.816Z,95667.27
2018-04-14T08:54:17.124Z,95666.77
2018-04-14T08:56:43.521Z,95661.56
2018-04-14T08:59:09.783Z,95650.55
2018-04-14T09:01:36.101Z,95653.80
2018-04-14T09:04:02.412Z,95654.22
2018-04-14T09:06:28.829Z,95652.06
2018-04-14T09:08:55.167Z,95653.70
2018-04-14T09:11:21.441Z,95644.23
2018-04-14T09:13:47.841Z,95646.75
2018-04-14T09:16:14.176Z,95646.47
2018-04-14T09:18:40.662Z,95642.05
2018-04-14T09:21:07.019Z,95638.98
2018-04-14T09:23:33.405Z,95641.34
2018-04-14T09:25:59.787Z,95631.89
2018-04-14T09:28:26.356Z,95622.05
2018-04-14T09:30:52.723Z,95624.05
2018-04-14T09:33:19.228Z,95624.64
2018-04-14T09:35:45.645Z,95625.05
2018-04-14T09:38:12.072Z,95622.58
2018-04-14T09:40:38.568Z,95611.95
2018-04-14T09:43:05.003Z,95610.80
2018-04-14T09:45:31.452Z,95620.31
2018-04-14T09:47:57.964Z,95614.89
2018-04-14T09:50:24.404Z,95620.80
2018-04-14T09:52:50.873Z,95606.08
2018-04-14T09:55:17.352Z,95610.25
2018-04-14T09:57:43.877Z,95606.78
2018-04-14T10:00:10.397Z,95607.44
2018-04-14T10:02:42.778Z,95607.52
2018-04-14T10:05:09.168Z,95605.78
2018-04-14T10:07:35.566Z,95596.64
2018-04-14T10:10:01.967Z,95597.52
2018-04-14T10:12:28.480Z,95598.28
2018-04-14T10:14:54.973Z,95597.98
2018-04-14T10:17:21.454Z,95604.06
2018-04-14T10:19:47.836Z,95595.58
2018-04-14T10:22:14.187Z,95601.66
2018-04-14T10:24:40.684Z,95598.52
2018-04-14T10:27:07.139Z,95597.42
2018-04-14T10:29:33.593Z,95598.58
2018-04-14T10:32:00.024Z,95595.97
2018-04-14T10:34:33.478Z,95596.61
2018-04-14T10:36:59.815Z,95591.11
2018-04-14T10:39:26.178Z,95590.66
2018-04-14T10:41:52.637Z,95583.03
2018-04-14T10:44:19.064Z,95586.73
2018-04-14T10:46:45.523Z,95583.26
2018-04-14T10:49:12.028Z,95591.17
2018-04-14T10:51:38.412Z,95586.26
2018-04-14T10:54:04.780Z,95586.54
2018-04-14T10:56:31.289Z,95576.31
2018-04-14T10:58:57.683Z,95580.42
2018-04-14T11:01:24.101Z,95585.09
2018-04-14T11:03:50.632Z,95573.71
2018-04-14T11:06:17.183Z,95570.86
2018-04-14T11:08:43.578Z,95573.23
2018-04-14T11:11:10.066Z,95573.87
2018-04-14T11:13:36.440Z,95577.05
2018-04-14T11:16:02.847Z,95575.08
2018-04-14T11:18:29.333Z,95575.56
2018-04-14T11:20:55.733Z,95571.88
2018-04-14T11:23:22.186Z,95574.56
2018-04-14T11:25:48.618Z,95567.78
2018-04-14T11:28:15.060Z,95571.14
2018-04-14T11:30:41.488Z,95565.59
2018-04-14T11:33:07.991Z,95565.58
2018-04-14T11:35:34.457Z,95560.72
2018-04-14T11:38:00.886Z,95555.87
2018-04-14T11:40:27.344Z,95559.34
2018-04-14T11:42:53.764Z,95559.38
2018-04-14T11:45:20.245Z,95556.31
2018-04-14T11:47:46.696Z,95548.66
2018-04-14T11:50:13.059Z,95552.58
2018-04-14T11:52:39.491Z,95550.55
2018-04-14T11:55:05.952Z,95554.88
2018-04-14T11:57:32.467Z,95544.00
2018-04-14T11:59:58.874Z,95538.99
2018-04-14T12:02:25.396Z,95545.92
2018-04-14T12:04:51.828Z,95539.48
2018-04-14T12:07:18.361Z,95537.89
2018-04-14T12:11:17.304Z,95533.00
2018-04-14T12:13:43.831Z,95530.80
2018-04-14T12:16:10.301Z,95527.61
2018-04-14T12:18:36.905Z,95526.89
2018-04-14T12:21:03.362Z,95523.00
2018-04-14T12:23:29.813Z,95520.42
2018-04-14T12:25:56.290Z,95521.91
2018-04-14T12:28:22.761Z,95516.05
2018-04-14T12:30:49.213Z,95526.59
2018-04-14T12:33:15.626Z,95518.14
2018-04-14T12:35:42.132Z,95517.11
2018-04-14T12:38:08.524Z,95516.56
2018-04-14T12:40:34.970Z,95511.33
2018-04-14T12:43:02.114Z,95509.11
2018-04-14T12:45:28.576Z,95504.34
2018-04-14T12:47:54.988Z,95511.38
2018-04-14T12:50:21.372Z,95509.51
2018-04-14T12:52:47.795Z,95504.91
2018-04-14T12:55:14.186Z,95501.59
2018-04-14T12:57:40.631Z,95507.11
2018-04-14T13:00:07.221Z,95490.84
2018-04-14T13:02:33.717Z,95507.27
2018-04-14T13:05:00.328Z,95501.76
2018-04-14T13:07:26.780Z,95502.53
2018-04-14T13:12:47.413Z,95498.66
2018-04-14T13:15:13.848Z,95498.51
2018-04-14T13:17:40.291Z,95505.94
2018-04-14T13:20:06.640Z,95498.72
2018-04-14T13:22:33.024Z,95493.39
2018-04-14T13:24:59.573Z,95484.95
2018-04-14T13:27:25.970Z,95499.14
2018-04-14T13:29:52.525Z,95492.69
2018-04-14T13:32:19.163Z,95489.30
2018-04-14T13:34:45.834Z,95490.69
2018-04-14T13:37:12.524Z,95482.27
2018-04-14T13:39:39.076Z,95493.64
2018-04-14T13:42:05.769Z,95490.83
2018-04-14T13:44:32.244Z,95490.20
2018-04-14T13:46:58.616Z,95489.59
2018-04-14T13:49:25.080Z,95480.30
2018-04-14T13:51:51.720Z,95487.68
2018-04-14T13:54:18.234Z,95495.90
2018-04-14T13:56:46.039Z,95492.72
2018-04-14T13:59:13.124Z,95497.15
2018-04-14T14:01:39.504Z,95489.30
2018-04-14T14:04:06.114Z,95486.46
2018-04-14T14:06:32.688Z,95479.92
2018-04-14T14:08:59.155Z,95487.47
2018-04-14T14:11:25.565Z,95486.17
2018-04-14T14:13:52.212Z,95484.53
2018-04-14T14:16:18.780Z,95483.48
2018-04-14T14:18:45.332Z,95468.69
2018-04-14T14:21:11.799Z,95466.34
2018-04-14T14:23:38.208Z,95474.44
2018-04-14T14:26:04.838Z,95477.88
2018-04-14T14:28:31.430Z,95476.05
2018-04-14T14:30:57.850Z,95482.43
2018-04-14T14:33:24.350Z,95485.07
2018-04-14T14:35:50.915Z,95484.38
2018-04-14T14:38:17.508Z,95491.05
2018-04-14T14:40:44.081Z,95495.66
2018-04-14T14:43:10.664Z,95494.25
2018-04-14T14:45:37.144Z,95501.70
2018-04-14T14:48:03.656Z,95500.12
2018-04-14T14:50:30.167Z,95513.88
2018-04-14T14:52:56.824Z,95501.41
2018-04-14T14:55:23.915Z,95503.24
2018-04-14T14:57:50.388Z,95501.34
2018-04-14T15:00:17.078Z,95511.88
2018-04-14T15:02:43.859Z,95509.52
2018-04-14T15:05:10.425Z,95509.46
2018-04-14T15:07:36.879Z,95510.80
2018-04-14T15:10:03.570Z,95519.09
2018-04-14T15:12:30.094Z,95520.20
2018-04-14T15:14:56.632Z,95519.59
2018-04-14T15:17:23.169Z,95517.00
2018-04-14T15:19:49.742Z,95515.64
2018-04-14T15:22:16.283Z,95524.33
2018-04-14T15:24:42.821Z,95526.69
2018-04-14T15:27:09.229Z,95526.63
2018-04-14T15:29:36.345Z,95533.85
2018-04-14T15:32:03.136Z,95528.28
2018-04-14T15:34:29.626Z,95525.28
2018-04-14T15:36:56.140Z,95524.75
2018-04-14T15:39:22.554Z,95528.44
2018-04-14T15:41:49.028Z,95517.34
2018-04-14T15:44:15.485Z,95525.35
2018-04-14T15:46:41.892Z,95533.73
2018-04-14T15:49:08.512Z,95529.17
2018-04-14T15:51:35.305Z,95535.25
2018-04-14T15:54:01.841Z,95537.06
2018-04-14T15:56:28.317Z,95539.39
2018-04-14T15:58:54.769Z,95548.97
2018-04-14T16:01:21.135Z,95560.45
2018-04-14T16:03:47.695Z,95560.09
2018-04-14T16:06:14.229Z,95557.22
2018-04-14T16:08:40.736Z,95564.06
2018-04-14T16:11:07.328Z,95562.34
2018-04-14T16:13:33.852Z,95572.75
2018-04-14T16:16:00.297Z,95577.45
2018-04-14T16:18:26.660Z,95581.45
2018-04-14T16:20:53.091Z,95582.61
2018-04-14T16:23:19.516Z,95579.27
2018-04-14T16:25:45.960Z,95582.91
2018-04-14T16:28:12.484Z,95576.78
2018-04-14T16:30:38.944Z,95576.30
2018-04-14T16:33:05.345Z,95580.83
2018-04-14T16:35:31.785Z,95578.97
2018-04-14T16:37:58.254Z,95571.86
2018-04-14T16:40:24.654Z,95575.55
2018-04-14T16:42:51.153Z,95571.59
2018-04-14T16:45:17.533Z,95571.29
2018-04-14T16:47:44.008Z,95581.20
2018-04-14T16:50:10.377Z,95579.54
2018-04-14T16:52:36.721Z,95583.23
2018-04-14T16:55:03.280Z,95585.72
2018-04-14T16:57:29.822Z,95594.52
2018-04-14T16:59:56.327Z,95578.97
2018-04-14T17:02:22.720Z,95585.27
2018-04-14T17:04:49.153Z,95592.02
2018-04-14T17:07:15.609Z,95593.75
2018-04-14T17:09:42.071Z,95598.17
2018-04-14T17:12:08.518Z,95591.83
2018-04-14T17:14:34.942Z,95596.55
2018-04-14T17:17:01.485Z,95597.66
2018-04-14T17:19:27.918Z,95597.19
2018-04-14T17:21:54.354Z,95606.48
2018-04-14T17:24:20.732Z,95608.58
2018-04-14T17:26:47.133Z,95613.72
2018-04-14T17:29:13.552Z,95614.75
2018-04-14T17:31:39.960Z,95620.98
2018-04-14T17:34:06.428Z,95627.99
2018-04-14T17:36:32.979Z,95629.86
2018-04-14T17:38:59.384Z,95636.09
2018-04-14T17:41:25.805Z,95629.38
2018-04-14T17:43:52.237Z,95639.59
2018-04-14T17:46:18.648Z,95638.94
2018-04-14T17:48:45.063Z,95641.52
2018-04-14T17:51:11.589Z,95647.45
2018-04-14T17:53:38.081Z,95648.10
2018-04-14T17:56:04.499Z,95655.37
2018-04-14T17:58:30.921Z,95656.91
2018-04-14T18:00:57.377Z,95663.44
2018-04-14T18:03:23.850Z,95660.98
2018-04-14T18:05:50.220Z,95659.84
2018-04-14T18:08:16.668Z,95665.05
2018-04-14T18:10:43.070Z,95662.53
2018-04-14T18:13:09.474Z,95666.38
2018-04-14T18:15:35.924Z,95673.53
2018-04-14T18:18:02.313Z,95671.69
2018-04-14T18:20:28.733Z,95675.48
2018-04-14T18:22:55.111Z,95675.31
2018-04-14T18:25:21.559Z,95683.56
2018-04-14T18:27:48.064Z,95684.42
2018-04-14T18:30:14.525Z,95682.78
2018-04-14T18:32:40.964Z,95682.88
2018-04-14T18:35:07.394Z,95682.08
2018-04-14T18:37:33.776Z,95682.57
2018-04-14T18:40:00.240Z,95679.25
2018-04-14T18:42:26.683Z,95680.25
2018-04-14T18:44:53.199Z,95677.48
2018-04-14T18:47:19.587Z,95682.58
2018-04-14T18:49:46.032Z,95693.92
2018-04-14T18:52:12.506Z,95682.41
2018-04-14T18:54:38.932Z,95679.73
2018-04-14T18:57:05.323Z,95687.59
2018-04-14T18:59:31.719Z,95689.95
2018-04-14T19:01:58.192Z,95695.94
2018-04-14T19:04:24.620Z,95699.84
2018-04-14T19:06:51.033Z,95703.42
2018-04-14T19:09:17.453Z,95703.52
2018-04-14T19:11:43.851Z,95703.70
2018-04-14T19:14:10.345Z,95704.55
2018-04-14T19:16:36.760Z,95692.47
2018-04-14T19:19:03.160Z,95703.12
2018-04-14T19:21:29.591Z,95707.20
2018-04-14T19:23:56.012Z,95705.97
2018-04-14T19:26:22.428Z,95706.27
2018-04-14T19:28:48.836Z,95711.37
2018-04-14T19:31:15.232Z,95715.34
2018-04-14T19:33:41.720Z,95709.24
2018-04-14T19:36:08.260Z,95706.95
2018-04-14T19:38:34.692Z,95702.47
2018-04-14T19:41:01.171Z,95708.19
2018-04-14T19:43:27.680Z,95710.31
2018-04-14T19:45:54.094Z,95697.08
2018-04-14T19:48:20.499Z,95709.87
2018-04-14T19:50:46.904Z,95701.02
2018-04-14T19:53:13.434Z,95698.27
2018-04-14T19:55:39.970Z,95711.63
2018-04-14T19:58:06.413Z,95696.77
2018-04-14T20:00:32.868Z,95704.16
2018-04-14T20:02:59.303Z,95709.43
2018-04-14T20:05:25.785Z,95700.52
2018-04-14T20:07:52.252Z,95707.06
2018-04-14T20:10:18.780Z,95701.74
2018-04-14T20:12:45.357Z,95702.16
2018-04-14T20:15:11.781Z,95705.10
2018-04-14T20:17:38.173Z,95709.25
2018-04-14T20:20:04.636Z,95721.02
2018-04-14T20:22:31.096Z,95711.25
2018-04-14T20:24:57.543Z,95711.91
2018-04-14T20:27:23.971Z,95717.33
2018-04-14T20:29:57.481Z,95727.55
2018-04-14T20:32:23.992Z,95716.92
2018-04-14T20:34:50.429Z,95721.84
2018-04-14T20:37:16.840Z,95721.02
2018-04-14T20:39:43.391Z,95729.30
2018-04-14T20:42:09.780Z,95725.02
2018-04-14T20:44:36.188Z,95731.54
2018-04-14T20:47:02.652Z,95729.30
2018-04-14T20:49:29.055Z,95728.27
2018-04-14T20:51:55.552Z,95728.67
2018-04-14T20:54:22.012Z,95728.95
2018-04-14T20:56:48.413Z,95725.06
2018-04-14T20:59:14.889Z,95730.89
2018-04-14T21:01:41.300Z,95720.13
2018-04-14T21:04:07.777Z,95739.75
2018-04-14T21:06:34.263Z,95733.08
2018-04-14T21:09:00.615Z,95729.20
2018-04-14T21:11:27.089Z,95737.00
2018-04-14T21:13:53.507Z,95734.70
2018-04-14T21:16:19.972Z,95739.36
2018-04-14T21:18:46.364Z,95737.73
2018-04-14T21:21:12.803Z,95744.05
2018-04-14T21:23:39.189Z,95750.70
2018-04-14T21:26:05.648Z,95748.19
2018-04-14T21:28:32.111Z,95746.39
2018-04-14T21:30:58.511Z,95742.18
2018-04-14T21:33:24.916Z,95750.13
2018-04-14T21:35:51.393Z,95735.59
2018-04-14T21:38:17.959Z,95746.05
2018-04-14T21:40:44.414Z,95754.30
2018-04-14T21:43:10.905Z,95746.91
2018-04-14T21:45:37.353Z,95749.14
2018-04-14T21:48:03.776Z,95748.36
2018-04-14T21:50:30.238Z,95751.38
2018-04-14T21:52:56.700Z,95744.66
2018-04-14T21:55:23.197Z,95745.95
2018-04-14T21:57:49.583Z,95747.95
2018-04-14T22:00:16.092Z,95755.42
2018-04-14T22:02:42.575Z,95749.00
2018-04-14T22:05:09.045Z,95748.30
2018-04-14T22:07:35.434Z,95746.05
2018-04-14T22:10:01.963Z,95750.33
2018-04-14T22:12:28.825Z,95753.35
2018-04-14T22:14:55.333Z,95745.58
2018-04-14T22:17:21.705Z,95738.81
2018-04-14T22:19:48.127Z,95739.91
2018-04-14T22:22:14.545Z,95743.59
2018-04-14T22:24:41.037Z,95737.30
2018-04-14T22:27:07.648Z,95742.23
2018-04-14T22:29:34.147Z,95744.77
2018-04-14T22:32:00.629Z,95751.03
2018-04-14T22:34:27.124Z,95744.93
2018-04-14T22:36:53.584Z,95755.23
2018-04-14T22:39:20.054Z,95753.06
2018-04-14T22:41:46.588Z,95753.84
2018-04-14T22:44:13.094Z,95760.17
2018-04-14T22:46:39.670Z,95751.04
2018-04-14T22:49:06.076Z,95753.17
2018-04-14T22:51:32.562Z,95746.92
2018-04-14T22:53:59.043Z,95758.78
2018-04-14T22:56:25.439Z,95757.44
2018-04-14T22:58:51.952Z,95750.24
2018-04-14T23:01:18.417Z,95748.02
2018-04-14T23:03:44.841Z,95746.08
2018-04-14T23:06:11.389Z,95744.55
2018-04-14T23:08:37.864Z,95744.19
2018-04-14T23:11:04.385Z,95736.45
2018-04-14T23:13:30.800Z,95739.66
2018-04-14T23:15:57.281Z,95737.87
2018-04-14T23:18:23.836Z,95738.39
2018-04-14T23:20:50.373Z,95733.66
2018-04-14T23:23:16.877Z,95739.15
2018-04-14T23:25:43.490Z,95733.61
2018-04-14T23:28:09.987Z,95732.42
2018-04-14T23:30:36.489Z,95732.73
2018-04-14T23:33:02.980Z,95737.41
2018-04-14T23:35:29.400Z,95739.53
2018-04-14T23:37:55.888Z,95741.06
2018-04-14T23:40:22.348Z,95742.45
2018-04-14T23:42:48.851Z,95742.24
2018-04-14T23:45:15.289Z,95746.70
2018-04-14T23:47:41.676Z,95747.47
2018-04-14T23:50:08.204Z,95747.45
2018-04-14T23:52:34.636Z,95745.77
2018-04-14T23:55:01.129Z,95755.89
2018-04-14T23:57:27.627Z,95744.73
2018-04-14T23:59:54.025Z,95736.99
